createdAt,value
2018-11-22T12:17:27.538Z,100827.50
2018-11-22T12:22:30.007Z,100827.30
2018-11-22T12:27:32.457Z,100835.38
2018-11-22T12:32:39.461Z,100825.57
2018-11-22T12:37:46.884Z,100830.59
2018-11-22T12:42:49.820Z,100836.53
2018-11-22T12:47:52.233Z,100823.95
2018-11-22T12:52:54.661Z,100826.84
2018-11-22T12:57:57.041Z,100822.70
2018-11-22T13:02:59.431Z,100825.73
2018-11-22T13:08:01.990Z,100818.81
2018-11-22T13:13:04.771Z,100817.45
2018-11-22T13:18:07.249Z,100826.95
2018-11-22T13:23:09.881Z,100827.00
2018-11-22T13:28:12.274Z,100818.27
2018-11-22T13:33:14.817Z,100817.45
2018-11-22T13:38:17.228Z,100823.92
2018-11-22T13:43:19.715Z,100814.84
2018-11-22T13:48:22.403Z,100816.59
2018-11-22T13:53:24.883Z,100824.09
2018-11-22T13:58:27.340Z,100821.52
2018-11-22T14:03:29.787Z,100822.03
2018-11-22T14:08:32.271Z,100816.82
2018-11-22T14:13:34.653Z,100811.34
2018-11-22T14:18:37.335Z,100814.63
2018-11-22T14:23:40.917Z,100812.98
2018-11-22T14:28:43.285Z,100812.99
2018-11-22T14:33:45.691Z,100810.52
2018-11-22T14:38:48.101Z,100823.34
2018-11-22T14:43:50.495Z,100841.19
2018-11-22T14:48:53.770Z,100833.84
2018-11-22T14:53:55.768Z,100833.63
2018-11-22T14:58:58.291Z,100830.77
2018-11-22T15:04:00.805Z,100836.31
2018-11-22T15:09:05.638Z,100843.81
2018-11-22T15:14:08.182Z,100842.09
2018-11-22T15:19:10.572Z,100832.45
2018-11-22T15:24:13.221Z,100826.87
2018-11-22T15:29:15.645Z,100830.99
2018-11-22T15:34:18.027Z,100836.94
2018-11-22T15:39:20.380Z,100842.12
2018-11-22T15:44:23.042Z,100845.70
2018-11-22T15:49:25.533Z,100839.61
2018-11-22T15:54:27.887Z,100851.26
2018-11-22T15:59:31.138Z,100853.97
2018-11-22T16:04:33.605Z,100860.19
2018-11-22T16:09:35.953Z,100861.54
2018-11-22T16:14:38.437Z,100863.72
2018-11-22T16:19:41.057Z,100866.48
2018-11-22T16:24:43.495Z,100860.73
2018-11-22T16:29:45.899Z,100864.37
2018-11-22T16:34:49.683Z,100868.59
2018-11-22T16:39:54.202Z,100861.43
2018-11-22T16:44:56.986Z,100877.84
2018-11-22T16:50:06.053Z,100877.80
2018-11-22T16:55:09.126Z,100879.26
2018-11-22T17:00:20.226Z,100880.67
2018-11-22T17:05:23.783Z,100879.06
2018-11-22T17:10:29.861Z,100874.77
2018-11-22T17:15:35.717Z,100869.45
2018-11-22T17:20:38.405Z,100869.93
2018-11-22T17:25:40.841Z,100867.39
2018-11-22T17:30:44.376Z,100869.55
2018-11-22T17:35:47.032Z,100864.28
2018-11-22T17:40:50.948Z,100874.83
2018-11-22T17:45:54.064Z,100870.92
2018-11-22T17:50:56.479Z,100874.45
2018-11-22T17:55:59.101Z,100874.86
2018-11-22T18:01:01.662Z,100868.77
2018-11-22T18:06:04.306Z,100866.59
2018-11-22T18:11:06.781Z,100875.85
2018-11-22T18:16:09.478Z,100879.34
2018-11-22T18:21:12.042Z,100878.54
2018-11-22T18:26:14.494Z,100885.70
2018-11-22T18:31:17.058Z,100880.87
2018-11-22T18:36:20.054Z,100874.35
2018-11-22T18:41:22.427Z,100877.37
2018-11-22T18:46:25.517Z,100882.62
2018-11-22T18:51:28.217Z,100888.80
2018-11-22T18:56:36.862Z,100878.72
2018-11-22T19:01:33.569Z,100884.00
2018-11-22T19:06:36.336Z,100884.45
2018-11-22T19:11:38.959Z,100884.92
2018-11-22T19:16:41.368Z,100901.55
2018-11-22T19:21:43.833Z,100898.59
2018-11-22T19:26:46.277Z,100899.51
2018-11-22T19:31:48.787Z,100896.46
2018-11-22T19:36:51.222Z,100899.06
2018-11-22T19:41:54.101Z,100890.81
2018-11-22T19:46:56.769Z,100893.38
2018-11-22T19:51:59.390Z,100899.59
2018-11-22T19:57:01.817Z,100902.63
2018-11-22T20:02:05.008Z,100910.08
2018-11-22T20:07:07.430Z,100905.81
2018-11-22T20:12:11.528Z,100915.00
2018-11-22T20:17:14.589Z,100918.97
2018-11-22T20:22:17.411Z,100918.99
2018-11-22T20:27:19.967Z,100916.44
2018-11-22T20:32:22.609Z,100923.02
2018-11-22T20:37:25.030Z,100926.56
2018-11-22T20:42:27.598Z,100924.42
2018-11-22T20:47:30.392Z,100920.94
2018-11-22T20:52:33.445Z,100920.13
2018-11-22T20:57:36.477Z,100920.58
2018-11-22T21:02:38.926Z,100921.44
2018-11-22T21:07:42.290Z,100928.94
2018-11-22T21:12:45.367Z,100922.06
2018-11-22T21:17:49.250Z,100914.78
2018-11-22T21:22:51.939Z,100918.20
2018-11-22T21:27:54.381Z,100921.83
2018-11-22T21:32:57.847Z,100916.70
2018-11-22T21:38:01.173Z,100921.84
2018-11-22T21:43:03.874Z,100920.58
2018-11-22T21:48:06.269Z,100915.38
2018-11-22T21:53:08.787Z,100914.11
2018-11-22T21:58:11.258Z,100921.13
2018-11-22T22:03:13.725Z,100909.70
2018-11-22T22:08:16.120Z,100907.98
2018-11-22T22:13:18.709Z,100904.05
2018-11-22T22:18:21.407Z,100904.45
2018-11-22T22:23:23.772Z,100910.56
2018-11-22T22:28:26.142Z,100910.47
2018-11-22T22:33:28.677Z,100914.42
2018-11-22T22:38:31.082Z,100916.20
2018-11-22T22:43:33.597Z,100908.84
2018-11-22T22:48:36.104Z,100908.84
2018-11-22T22:53:38.571Z,100911.94
2018-11-22T22:58:40.969Z,100912.31
2018-11-22T23:03:43.784Z,100915.86
2018-11-22T23:08:46.265Z,100909.20
2018-11-22T23:13:48.669Z,100910.49
2018-11-22T23:18:51.249Z,100905.97
2018-11-22T23:23:53.726Z,100904.06
2018-11-22T23:28:56.111Z,100892.83
2018-11-22T23:33:58.597Z,100892.70
2018-11-22T23:39:00.976Z,100888.43
2018-11-22T23:44:03.457Z,100882.81
2018-11-22T23:49:05.870Z,100879.85
2018-11-22T23:54:08.212Z,100879.95
2018-11-22T23:59:10.644Z,100879.56
